Time;durP1;ratioP1;P1;durP2;ratioP2;P2;SDS_P1;SDS_P2;PMS_P1;PMS_P2;Temp;Humidity;BMP_temperature;BMP_pressure;BME280_temperature;BME280_humidity;BME280_pressure;Samples;Min_cycle;Max_cycle;Signal;HPM_P1;HPM_P2
2022/10/30 00:01:26;;;;;;;8.33;4.87;;;16.10;84.40;;;;;;5001042;28;20644;-70
2022/10/30 00:03:52;;;;;;;10.27;5.30;;;16.20;84.30;;;;;;5000265;28;20659;-69
2022/10/30 00:06:17;;;;;;;10.57;5.37;;;16.10;84.40;;;;;;5002695;28;20706;-70
2022/10/30 00:08:43;;;;;;;9.83;5.23;;;16.10;84.40;;;;;;5005326;28;20230;-70
2022/10/30 00:11:11;;;;;;;23.53;5.90;;;16.10;84.30;;;;;;5004901;28;20185;-69
2022/10/30 00:13:37;;;;;;;12.23;5.13;;;16.10;84.10;;;;;;4998550;28;20303;-69
2022/10/30 00:16:07;;;;;;;11.20;5.97;;;16.10;84.10;;;;;;5003146;28;20431;-70
2022/10/30 00:18:35;;;;;;;17.30;5.13;;;16.10;84.10;;;;;;5003002;28;20640;-69
2022/10/30 00:21:10;;;;;;;15.90;6.63;;;16.10;84.00;;;;;;5009761;28;20428;-69
2022/10/30 00:23:35;;;;;;;17.90;6.30;;;16.10;84.00;;;;;;5002298;28;20502;-69
2022/10/30 00:26:06;;;;;;;13.20;5.60;;;16.00;84.30;;;;;;5011919;28;20514;-69
2022/10/30 00:28:32;;;;;;;16.90;6.27;;;16.00;84.90;;;;;;5010431;28;20197;-69
2022/10/30 00:30:59;;;;;;;11.00;5.83;;;16.00;84.60;;;;;;5012413;28;20436;-69
2022/10/30 00:33:24;;;;;;;13.80;5.83;;;16.00;84.90;;;;;;5002150;28;20897;-69
2022/10/30 00:35:50;;;;;;;14.13;6.20;;;16.00;84.60;;;;;;5012280;28;20463;-70
2022/10/30 00:38:16;;;;;;;14.73;5.60;;;16.10;84.40;;;;;;5010247;28;20186;-69
2022/10/30 00:40:41;;;;;;;12.33;5.10;;;16.00;84.30;;;;;;5011999;28;20595;-70
2022/10/30 00:43:30;;;;;;;16.00;6.23;;;16.00;84.10;;;;;;5003035;28;20228;-70
2022/10/30 00:46:19;;;;;;;13.20;5.00;;;15.90;84.10;;;;;;5012586;28;20691;-70
2022/10/30 00:48:53;;;;;;;14.70;6.10;;;15.80;84.40;;;;;;5012885;28;20425;-69
2022/10/30 00:51:19;;;;;;;11.63;5.00;;;15.80;85.20;;;;;;5005157;28;20952;-69
2022/10/30 00:53:47;;;;;;;13.70;5.90;;;15.90;84.70;;;;;;5007431;28;20861;-69
2022/10/30 00:56:14;;;;;;;16.63;6.50;;;15.80;84.60;;;;;;5007676;28;20957;-69
2022/10/30 00:58:49;;;;;;;12.97;5.97;;;15.80;85.00;;;;;;5014101;28;20438;-69
2022/10/30 01:01:22;;;;;;;29.30;11.20;;;15.80;87.00;;;;;;5013229;28;20509;-70
2022/10/30 01:03:50;;;;;;;27.57;13.43;;;15.80;87.40;;;;;;5005921;28;20451;-70
2022/10/30 01:06:16;;;;;;;32.67;13.33;;;15.70;89.70;;;;;;5012585;28;20426;-70
2022/10/30 01:08:42;;;;;;;26.80;11.93;;;15.70;90.70;;;;;;5019306;28;20432;-70
2022/10/30 01:11:09;;;;;;;30.30;14.20;;;15.60;91.40;;;;;;5013445;28;20428;-69
2022/10/30 01:13:37;;;;;;;22.40;13.87;;;15.50;92.10;;;;;;5014371;28;20554;-69
2022/10/30 01:16:54;;;;;;;28.63;14.87;;;15.50;92.40;;;;;;5011137;28;20427;-69
2022/10/30 01:19:20;;;;;;;29.17;14.10;;;15.40;92.90;;;;;;5008793;28;21257;-69
2022/10/30 01:22:07;;;;;;;27.77;13.67;;;15.30;93.20;;;;;;5004285;28;20483;-69
2022/10/30 01:24:57;;;;;;;24.47;12.00;;;15.30;93.40;;;;;;5005101;28;20209;-70
2022/10/30 01:27:36;;;;;;;26.40;11.87;;;15.30;93.60;;;;;;5012322;28;20540;-69
2022/10/30 01:30:13;;;;;;;21.23;11.10;;;15.40;93.20;;;;;;5009372;28;20461;-69
2022/10/30 01:33:15;;;;;;;29.43;11.83;;;15.30;92.90;;;;;;5008541;28;20472;-69
2022/10/30 01:35:49;;;;;;;28.00;13.20;;;15.40;92.90;;;;;;5011946;28;20452;-69
2022/10/30 01:38:33;;;;;;;29.13;13.33;;;15.30;92.80;;;;;;5004738;28;20604;-69
2022/10/30 01:40:58;;;;;;;26.23;13.20;;;15.30;93.30;;;;;;5004929;28;20950;-69
2022/10/30 01:43:24;;;;;;;19.97;12.10;;;15.20;93.60;;;;;;5003385;28;20513;-70
2022/10/30 01:46:27;;;;;;;31.40;12.93;;;15.20;93.80;;;;;;5010114;28;20212;-69
2022/10/30 01:49:00;;;;;;;29.17;13.17;;;15.20;93.80;;;;;;5008542;28;20282;-70
2022/10/30 01:51:50;;;;;;;23.93;11.70;;;15.30;93.80;;;;;;5002357;28;20440;-70
2022/10/30 01:54:31;;;;;;;26.27;11.53;;;15.40;93.60;;;;;;5006158;28;20445;-69
2022/10/30 01:57:22;;;;;;;22.60;13.03;;;15.40;93.30;;;;;;5009392;28;20424;-69
2022/10/30 01:59:57;;;;;;;21.23;10.87;;;15.40;93.20;;;;;;5010649;28;20870;-70
2022/10/30 02:02:23;;;;;;;23.27;10.67;;;15.50;92.90;;;;;;5002950;28;20464;-69
2022/10/30 02:04:49;;;;;;;21.97;11.27;;;15.50;92.60;;;;;;5010333;28;20563;-69
2022/10/30 02:07:15;;;;;;;18.93;10.40;;;15.40;92.50;;;;;;5010375;28;20424;-68
2022/10/30 02:09:41;;;;;;;20.67;12.20;;;15.40;92.60;;;;;;5009370;28;20428;-69
2022/10/30 02:12:08;;;;;;;17.53;10.13;;;15.40;92.60;;;;;;5004324;28;20737;-69
2022/10/30 02:14:40;;;;;;;23.33;11.80;;;15.50;92.60;;;;;;5010157;28;20441;-68
2022/10/30 02:17:08;;;;;;;26.17;10.67;;;15.50;92.60;;;;;;5008263;28;20523;-68
2022/10/30 02:19:34;;;;;;;23.23;9.30;;;15.50;92.40;;;;;;5009943;28;20487;-69
2022/10/30 02:22:00;;;;;;;23.97;9.90;;;15.50;92.30;;;;;;5002350;28;20518;-69
2022/10/30 02:24:27;;;;;;;18.73;9.90;;;15.50;92.00;;;;;;5009251;28;20471;-70
2022/10/30 02:26:52;;;;;;;21.37;10.40;;;15.50;91.90;;;;;;5007392;28;21356;-70
2022/10/30 02:29:20;;;;;;;26.97;11.00;;;15.50;91.90;;;;;;5010824;28;20423;-70
2022/10/30 02:31:46;;;;;;;22.10;10.77;;;15.40;91.90;;;;;;5005425;28;21302;-70
2022/10/30 02:34:11;;;;;;;18.90;10.47;;;15.40;92.10;;;;;;5013080;28;20944;-69
2022/10/30 02:36:37;;;;;;;18.37;9.17;;;15.50;92.00;;;;;;5005193;28;20197;-69
2022/10/30 02:39:03;;;;;;;23.43;10.27;;;15.50;91.70;;;;;;5004922;28;20547;-69
2022/10/30 02:41:28;;;;;;;17.17;8.97;;;15.50;91.50;;;;;;5004553;28;20188;-69
2022/10/30 02:43:54;;;;;;;14.03;7.73;;;15.50;91.40;;;;;;5007024;28;20446;-68
2022/10/30 02:46:20;;;;;;;15.80;7.50;;;15.40;91.40;;;;;;5009809;28;20178;-70
2022/10/30 02:48:46;;;;;;;17.90;8.87;;;15.40;91.40;;;;;;5009747;28;20184;-69
2022/10/30 02:51:12;;;;;;;22.43;9.80;;;15.40;91.20;;;;;;5009056;28;20576;-69
2022/10/30 02:53:38;;;;;;;25.30;9.80;;;15.40;91.30;;;;;;5001036;28;20218;-69
2022/10/30 02:56:05;;;;;;;19.23;8.93;;;15.40;91.40;;;;;;5009554;28;20196;-69
2022/10/30 02:58:31;;;;;;;18.13;8.77;;;15.40;91.30;;;;;;5008082;28;20181;-69
2022/10/30 03:00:57;;;;;;;16.17;7.90;;;15.40;91.10;;;;;;5009522;28;20501;-71
2022/10/30 03:03:22;;;;;;;16.93;7.20;;;15.40;91.00;;;;;;5000965;28;20456;-70
2022/10/30 03:05:48;;;;;;;19.00;6.97;;;15.30;90.80;;;;;;5005511;28;20285;-70
2022/10/30 03:08:14;;;;;;;16.77;7.27;;;15.30;90.50;;;;;;5008012;28;20169;-69
2022/10/30 03:10:39;;;;;;;17.17;6.73;;;15.20;90.70;;;;;;5008557;28;20192;-71
2022/10/30 03:13:05;;;;;;;17.60;6.73;;;15.20;90.60;;;;;;5001677;28;20244;-70
2022/10/30 03:15:30;;;;;;;13.27;6.10;;;15.20;90.70;;;;;;5007791;28;20216;-70
2022/10/30 03:17:56;;;;;;;11.90;5.87;;;15.20;90.60;;;;;;5009565;28;20189;-70
2022/10/30 03:20:21;;;;;;;10.93;6.70;;;15.20;90.50;;;;;;5005383;28;20187;-70
2022/10/30 03:22:47;;;;;;;15.00;7.20;;;15.10;90.30;;;;;;5006191;28;20284;-70
2022/10/30 03:25:12;;;;;;;17.43;5.80;;;15.10;90.30;;;;;;5005052;28;20204;-70
2022/10/30 03:27:38;;;;;;;14.93;6.43;;;15.10;90.30;;;;;;5007048;28;20265;-70
2022/10/30 03:30:04;;;;;;;13.10;6.10;;;15.10;90.30;;;;;;5008859;28;20283;-70
2022/10/30 03:32:30;;;;;;;14.40;7.20;;;15.10;90.20;;;;;;5007108;28;20634;-68
2022/10/30 03:34:55;;;;;;;22.83;7.20;;;15.00;90.10;;;;;;5003865;28;20429;-70
2022/10/30 03:37:21;;;;;;;16.20;7.27;;;14.90;90.40;;;;;;5005859;28;20191;-70
2022/10/30 03:39:46;;;;;;;17.17;8.10;;;14.90;90.70;;;;;;5011233;28;20221;-69
2022/10/30 03:42:12;;;;;;;15.07;7.13;;;15.00;90.90;;;;;;5007758;28;20213;-70
2022/10/30 03:44:37;;;;;;;13.80;6.93;;;14.90;90.70;;;;;;5012901;28;20209;-71
2022/10/30 03:47:03;;;;;;;14.53;7.00;;;14.90;90.80;;;;;;5013688;28;20218;-68
2022/10/30 03:49:28;;;;;;;12.60;6.50;;;14.90;91.00;;;;;;5012498;28;20189;-70
2022/10/30 03:51:54;;;;;;;13.10;6.07;;;14.90;90.90;;;;;;5011070;28;20217;-68
2022/10/30 03:54:19;;;;;;;10.60;6.13;;;14.90;90.90;;;;;;5013516;28;20191;-69
2022/10/30 03:56:45;;;;;;;13.47;6.27;;;14.90;90.60;;;;;;5013867;28;20231;-69
2022/10/30 03:59:11;;;;;;;16.20;5.93;;;14.80;90.50;;;;;;5011566;28;20187;-70
2022/10/30 04:01:37;;;;;;;13.00;5.50;;;14.80;90.50;;;;;;5010336;28;20271;-69
2022/10/30 04:04:02;;;;;;;10.73;5.23;;;14.80;90.20;;;;;;5011102;28;20180;-69
2022/10/30 04:06:28;;;;;;;17.97;6.77;;;14.80;90.00;;;;;;5014023;28;20841;-69
2022/10/30 04:08:54;;;;;;;15.97;6.10;;;14.70;89.90;;;;;;5010848;28;20198;-69
2022/10/30 04:11:20;;;;;;;14.30;6.30;;;14.70;90.10;;;;;;5007673;28;20182;-69
2022/10/30 04:13:45;;;;;;;21.33;6.33;;;14.60;90.10;;;;;;5010892;28;20457;-69
2022/10/30 04:16:11;;;;;;;12.40;5.40;;;14.60;89.90;;;;;;5013303;28;20291;-68
2022/10/30 04:18:36;;;;;;;8.33;5.23;;;14.70;89.30;;;;;;5007627;28;20193;-69
2022/10/30 04:21:02;;;;;;;13.07;6.23;;;14.70;88.70;;;;;;5009146;28;20362;-70
2022/10/30 04:23:28;;;;;;;13.20;6.67;;;14.70;88.90;;;;;;5008798;28;20275;-69
2022/10/30 04:25:53;;;;;;;16.07;6.30;;;14.70;89.00;;;;;;5013119;28;20216;-70
2022/10/30 04:28:20;;;;;;;11.93;6.00;;;14.60;89.00;;;;;;5011472;28;20700;-70
2022/10/30 04:30:46;;;;;;;14.13;6.00;;;14.70;89.20;;;;;;5012730;28;20248;-69
2022/10/30 04:33:12;;;;;;;14.23;6.30;;;14.70;88.90;;;;;;5003544;28;20463;-69
2022/10/30 04:35:39;;;;;;;11.40;6.00;;;14.60;89.20;;;;;;5012734;28;20849;-69
2022/10/30 04:38:07;;;;;;;16.47;5.93;;;14.60;89.00;;;;;;5011508;28;20521;-68
2022/10/30 04:40:35;;;;;;;13.03;5.60;;;14.60;88.90;;;;;;5012512;28;20451;-70
2022/10/30 04:43:04;;;;;;;14.70;5.77;;;14.60;89.00;;;;;;5006608;28;20976;-70
2022/10/30 04:45:30;;;;;;;19.10;5.70;;;14.70;89.20;;;;;;5011843;28;20469;-69
2022/10/30 04:48:00;;;;;;;11.90;5.03;;;14.60;89.00;;;;;;5011070;28;20455;-71
2022/10/30 04:50:26;;;;;;;12.97;5.90;;;14.60;89.30;;;;;;5012887;28;20423;-69
2022/10/30 04:53:03;;;;;;;17.07;6.43;;;14.50;89.50;;;;;;5008172;28;20507;-70
2022/10/30 04:55:29;;;;;;;13.60;6.10;;;14.50;89.30;;;;;;5013320;28;20186;-70
2022/10/30 04:57:58;;;;;;;15.33;6.23;;;14.50;89.60;;;;;;5025480;28;20437;-70
2022/10/30 05:00:25;;;;;;;13.73;6.07;;;14.50;89.70;;;;;;5026359;28;20426;-69
2022/10/30 05:02:51;;;;;;;21.50;7.27;;;14.50;89.70;;;;;;5020270;28;20450;-70
2022/10/30 05:05:17;;;;;;;13.60;6.70;;;14.50;89.70;;;;;;5020849;28;20457;-69
2022/10/30 05:07:42;;;;;;;12.70;6.40;;;14.50;89.70;;;;;;5013417;28;20418;-70
2022/10/30 05:10:13;;;;;;;17.80;6.33;;;14.40;89.60;;;;;;5013362;28;20180;-68
2022/10/30 05:12:42;;;;;;;15.13;6.53;;;14.40;89.30;;;;;;5009417;28;20202;-69
2022/10/30 05:15:08;;;;;;;24.50;7.40;;;14.50;88.60;;;;;;5006606;28;20433;-69
2022/10/30 05:17:34;;;;;;;17.97;6.43;;;14.50;88.30;;;;;;5004865;28;20435;-69
2022/10/30 05:19:59;;;;;;;14.10;6.17;;;14.60;88.30;;;;;;5012978;28;20430;-70
2022/10/30 05:22:25;;;;;;;14.50;6.77;;;14.60;88.00;;;;;;5011959;28;20207;-68
2022/10/30 05:24:51;;;;;;;14.70;6.87;;;14.60;88.00;;;;;;5013539;28;20280;-68
2022/10/30 05:27:16;;;;;;;15.13;6.20;;;14.60;87.80;;;;;;5014750;28;20541;-69
2022/10/30 05:29:42;;;;;;;16.27;6.67;;;14.60;87.80;;;;;;5012477;28;20182;-68
2022/10/30 05:32:07;;;;;;;20.63;6.57;;;14.60;87.80;;;;;;5008017;28;20332;-68
2022/10/30 05:34:33;;;;;;;11.57;5.87;;;14.60;87.70;;;;;;5012182;28;20231;-69
2022/10/30 05:37:00;;;;;;;20.47;6.60;;;14.60;87.70;;;;;;5006344;28;20186;-68
2022/10/30 05:39:26;;;;;;;12.80;6.63;;;14.70;87.60;;;;;;5012279;28;20179;-68
2022/10/30 05:41:51;;;;;;;18.17;6.83;;;14.60;87.40;;;;;;5010211;28;20466;-69
2022/10/30 05:44:17;;;;;;;13.27;6.23;;;14.50;87.70;;;;;;5013797;28;20471;-68
2022/10/30 05:46:42;;;;;;;20.80;7.20;;;14.40;88.00;;;;;;5011280;28;21515;-68
2022/10/30 05:49:08;;;;;;;10.33;5.93;;;14.40;88.00;;;;;;5016959;28;20179;-70
2022/10/30 05:51:33;;;;;;;16.00;6.87;;;14.40;88.10;;;;;;5003919;28;20558;-70
2022/10/30 05:53:59;;;;;;;13.47;6.30;;;14.40;88.10;;;;;;5019940;28;20603;-69
2022/10/30 05:56:25;;;;;;;15.83;7.00;;;14.40;87.80;;;;;;5014162;28;20659;-69
2022/10/30 05:58:50;;;;;;;17.80;6.30;;;14.40;88.10;;;;;;5005805;28;20182;-69
2022/10/30 06:01:16;;;;;;;12.77;5.60;;;14.40;88.10;;;;;;5008978;28;20230;-69
2022/10/30 06:03:42;;;;;;;17.07;7.23;;;14.40;88.10;;;;;;5006449;28;20214;-70
2022/10/30 06:06:08;;;;;;;17.37;7.07;;;14.40;88.10;;;;;;5011409;28;20468;-69
2022/10/30 06:08:33;;;;;;;13.60;6.77;;;14.40;88.10;;;;;;5012185;28;20624;-69
2022/10/30 06:10:59;;;;;;;15.07;7.27;;;14.40;88.00;;;;;;5011286;28;20274;-68
2022/10/30 06:13:25;;;;;;;10.97;5.90;;;14.30;88.10;;;;;;5007442;28;20212;-68
2022/10/30 06:15:54;;;;;;;16.63;6.40;;;14.40;88.10;;;;;;5004675;28;20547;-69
2022/10/30 06:18:20;;;;;;;16.77;6.97;;;14.40;88.10;;;;;;5010280;28;20274;-70
2022/10/30 06:20:45;;;;;;;16.10;7.30;;;14.30;87.80;;;;;;5010638;28;20503;-70
2022/10/30 06:23:11;;;;;;;14.27;6.17;;;14.40;88.10;;;;;;5010467;28;20199;-69
2022/10/30 06:25:37;;;;;;;19.50;6.73;;;14.30;87.70;;;;;;5009947;28;20317;-69
2022/10/30 06:28:02;;;;;;;18.47;7.17;;;14.30;87.70;;;;;;5014014;28;20191;-70
2022/10/30 06:30:28;;;;;;;14.83;7.13;;;14.30;87.80;;;;;;5013153;28;20429;-70
2022/10/30 06:33:01;;;;;;;12.70;6.13;;;14.30;87.80;;;;;;5010074;28;20290;-69
2022/10/30 06:35:28;;;;;;;16.30;7.50;;;14.40;87.70;;;;;;5009433;28;20421;-70
2022/10/30 06:37:55;;;;;;;16.63;6.90;;;14.40;87.40;;;;;;5006740;28;21135;-69
2022/10/30 06:40:21;;;;;;;21.07;7.93;;;14.40;87.30;;;;;;5007381;28;21357;-70
2022/10/30 06:42:49;;;;;;;14.43;7.20;;;14.40;87.30;;;;;;4998008;28;20477;-69
2022/10/30 06:45:16;;;;;;;11.10;5.70;;;14.40;87.60;;;;;;5010038;28;21129;-69
2022/10/30 06:47:42;;;;;;;18.10;7.00;;;14.40;87.40;;;;;;5006737;28;20429;-70
2022/10/30 06:50:10;;;;;;;14.10;6.33;;;14.50;87.30;;;;;;5009800;28;20429;-70
2022/10/30 06:52:35;;;;;;;17.10;6.23;;;14.60;87.10;;;;;;4997333;28;20477;-72
2022/10/30 06:55:01;;;;;;;16.10;6.73;;;14.60;87.00;;;;;;5011323;28;20429;-70
2022/10/30 06:57:27;;;;;;;25.63;6.63;;;14.60;87.10;;;;;;5005108;28;20213;-70
2022/10/30 06:59:53;;;;;;;16.17;6.33;;;14.60;86.60;;;;;;5010310;28;20491;-69
2022/10/30 07:02:18;;;;;;;15.77;6.33;;;14.60;86.30;;;;;;5003207;28;20213;-70
2022/10/30 07:04:44;;;;;;;21.73;7.07;;;14.70;86.00;;;;;;5009979;28;20687;-69
2022/10/30 07:07:13;;;;;;;17.57;7.17;;;14.60;86.20;;;;;;5010353;28;20179;-70
2022/10/30 07:09:39;;;;;;;12.63;6.20;;;14.60;86.20;;;;;;5010388;28;20564;-69
2022/10/30 07:12:06;;;;;;;14.37;6.27;;;14.60;86.30;;;;;;5005254;28;20467;-69
2022/10/30 07:14:31;;;;;;;14.43;6.33;;;14.70;86.00;;;;;;5008762;28;20868;-70
2022/10/30 07:16:57;;;;;;;17.03;5.90;;;14.80;85.70;;;;;;5010737;28;20422;-70
2022/10/30 07:19:22;;;;;;;13.60;5.63;;;14.80;86.00;;;;;;5014241;28;20817;-70
2022/10/30 07:21:48;;;;;;;13.10;6.37;;;14.80;86.20;;;;;;5008088;28;20207;-69
2022/10/30 07:24:14;;;;;;;18.77;6.10;;;14.80;86.20;;;;;;5012613;28;20182;-68
2022/10/30 07:26:39;;;;;;;12.77;6.43;;;14.80;86.00;;;;;;5014143;28;20188;-69
2022/10/30 07:29:05;;;;;;;12.73;6.67;;;14.90;85.90;;;;;;5011319;28;20175;-69
2022/10/30 07:31:31;;;;;;;16.23;5.67;;;14.90;85.50;;;;;;5011670;28;20166;-70
2022/10/30 07:33:56;;;;;;;16.47;7.17;;;14.90;85.50;;;;;;5009701;28;20535;-69
2022/10/30 07:36:22;;;;;;;10.13;6.60;;;14.90;85.60;;;;;;5006678;28;20600;-69
2022/10/30 07:38:49;;;;;;;17.53;6.30;;;14.90;85.30;;;;;;5004152;28;20273;-68
2022/10/30 07:41:17;;;;;;;14.83;7.83;;;15.00;85.30;;;;;;5011273;28;20523;-70
2022/10/30 07:43:43;;;;;;;15.47;6.40;;;15.10;85.30;;;;;;5013345;28;21078;-69
2022/10/30 07:46:09;;;;;;;13.87;6.70;;;15.20;84.70;;;;;;5017799;28;20464;-70
2022/10/30 07:48:34;;;;;;;13.93;7.00;;;15.20;84.40;;;;;;5011486;28;20413;-70
2022/10/30 07:51:00;;;;;;;12.20;5.87;;;15.20;84.90;;;;;;5015528;28;20187;-70
2022/10/30 07:53:25;;;;;;;13.00;6.30;;;15.20;85.60;;;;;;5015043;28;20202;-69
2022/10/30 07:55:51;;;;;;;14.33;7.00;;;15.20;84.70;;;;;;5016585;28;20186;-70
2022/10/30 07:58:17;;;;;;;16.73;6.40;;;15.20;84.90;;;;;;5018066;28;20201;-71
2022/10/30 08:00:42;;;;;;;15.20;7.13;;;15.20;85.00;;;;;;5020393;28;20255;-71
2022/10/30 08:03:09;;;;;;;10.00;5.70;;;15.20;84.90;;;;;;5015018;28;20213;-70
2022/10/30 08:05:35;;;;;;;15.30;7.00;;;15.20;85.50;;;;;;5017254;28;20720;-70
2022/10/30 08:08:01;;;;;;;13.53;6.10;;;15.30;85.30;;;;;;5013929;28;20423;-70
2022/10/30 08:10:26;;;;;;;10.13;5.90;;;15.30;85.60;;;;;;5010914;28;20189;-70
2022/10/30 08:12:52;;;;;;;17.57;6.97;;;15.40;85.30;;;;;;5008782;28;20200;-70
2022/10/30 08:15:18;;;;;;;22.67;6.83;;;15.50;85.00;;;;;;5011278;28;20588;-69
2022/10/30 08:17:46;;;;;;;27.90;13.17;;;15.60;84.70;;;;;;5009739;28;20606;-70
2022/10/30 08:20:13;;;;;;;15.90;6.80;;;15.50;84.70;;;;;;5012293;28;20197;-70
2022/10/30 08:22:56;;;;;;;24.87;7.00;;;15.60;84.90;;;;;;5005756;28;20556;-70
2022/10/30 08:25:24;;;;;;;12.23;5.57;;;15.60;84.70;;;;;;5013405;28;21028;-70
2022/10/30 08:27:54;;;;;;;12.43;5.90;;;15.70;84.70;;;;;;5013253;28;20424;-69
2022/10/30 08:30:21;;;;;;;11.90;5.80;;;15.70;84.60;;;;;;5003976;28;20421;-71
2022/10/30 08:32:46;;;;;;;17.93;6.90;;;15.70;84.00;;;;;;5006213;28;21059;-71
2022/10/30 08:35:12;;;;;;;15.23;6.70;;;15.70;83.60;;;;;;5003447;28;20513;-70
2022/10/30 08:37:37;;;;;;;11.80;6.60;;;15.80;83.40;;;;;;5010924;28;20669;-69
2022/10/30 08:40:04;;;;;;;20.73;7.70;;;15.90;83.30;;;;;;5011502;28;20186;-71
2022/10/30 08:42:29;;;;;;;15.00;7.53;;;15.90;84.10;;;;;;5008697;28;20232;-69
2022/10/30 08:44:55;;;;;;;11.40;6.80;;;16.00;84.30;;;;;;5007448;28;20479;-69
2022/10/30 08:47:21;;;;;;;15.30;7.07;;;16.00;84.10;;;;;;5005569;28;20188;-69
2022/10/30 08:49:47;;;;;;;17.10;7.43;;;16.10;84.10;;;;;;5002487;28;21012;-69
2022/10/30 08:52:12;;;;;;;22.43;9.57;;;16.20;84.00;;;;;;5008070;28;21060;-69
2022/10/30 08:54:38;;;;;;;15.33;8.00;;;16.20;84.10;;;;;;5012592;28;20526;-70
2022/10/30 08:57:03;;;;;;;21.27;8.80;;;16.20;84.30;;;;;;5011482;28;20612;-71
2022/10/30 08:59:29;;;;;;;15.57;8.20;;;16.20;84.10;;;;;;5007275;28;20231;-70
2022/10/30 09:01:54;;;;;;;17.97;7.50;;;16.20;83.80;;;;;;5007084;28;20216;-70
2022/10/30 09:04:20;;;;;;;13.43;7.50;;;16.30;83.70;;;;;;5007989;28;20213;-68
2022/10/30 09:06:45;;;;;;;15.50;7.30;;;16.30;83.40;;;;;;5011916;28;20504;-68
2022/10/30 09:09:12;;;;;;;17.63;7.70;;;16.40;82.80;;;;;;5007477;28;20186;-69
2022/10/30 09:11:37;;;;;;;15.57;8.00;;;16.40;82.80;;;;;;5011761;28;20184;-71
2022/10/30 09:14:03;;;;;;;23.50;8.13;;;16.50;82.70;;;;;;5001994;28;20445;-69
2022/10/30 09:16:28;;;;;;;18.20;8.40;;;16.60;82.70;;;;;;5012341;28;20263;-69
2022/10/30 09:18:54;;;;;;;18.13;7.83;;;16.70;82.40;;;;;;5014246;28;20180;-69
2022/10/30 09:21:19;;;;;;;15.83;7.50;;;16.80;82.40;;;;;;5021412;28;20272;-69
2022/10/30 09:23:45;;;;;;;13.13;7.37;;;17.00;82.10;;;;;;5006316;28;20261;-69
2022/10/30 09:26:11;;;;;;;19.47;7.90;;;17.20;81.70;;;;;;5009188;28;20213;-70
2022/10/30 09:28:36;;;;;;;18.83;8.23;;;17.30;81.20;;;;;;5009673;28;20277;-70
2022/10/30 09:31:02;;;;;;;21.10;8.40;;;17.40;80.60;;;;;;5005617;28;20216;-70
2022/10/30 09:33:28;;;;;;;19.57;9.80;;;17.40;80.00;;;;;;5004397;28;20212;-69
2022/10/30 09:35:53;;;;;;;22.40;8.60;;;17.50;80.00;;;;;;5004346;28;20203;-70
2022/10/30 09:38:19;;;;;;;25.33;8.57;;;17.60;79.70;;;;;;5007326;28;20551;-72
2022/10/30 09:40:53;;;;;;;16.80;7.80;;;17.70;79.60;;;;;;5005699;28;20229;-69
2022/10/30 09:43:43;;;;;;;14.17;8.00;;;17.70;79.20;;;;;;5001583;28;20221;-68
2022/10/30 09:46:33;;;;;;;13.33;8.17;;;17.80;79.00;;;;;;5018172;28;20469;-70
2022/10/30 09:49:23;;;;;;;17.30;8.60;;;17.80;78.90;;;;;;5015650;28;20418;-69
2022/10/30 09:52:23;;;;;;;17.50;8.03;;;17.80;78.60;;;;;;5007979;28;20464;-68
2022/10/30 09:55:01;;;;;;;17.43;8.50;;;17.80;78.70;;;;;;5005493;28;20481;-68
2022/10/30 09:57:55;;;;;;;22.07;7.77;;;17.90;78.60;;;;;;5007849;28;20912;-71
2022/10/30 10:00:23;;;;;;;20.60;8.20;;;18.00;78.10;;;;;;5003189;28;20462;-70
2022/10/30 10:02:48;;;;;;;22.90;8.10;;;18.10;78.00;;;;;;5007136;28;20531;-68
2022/10/30 10:05:25;;;;;;;16.20;7.93;;;18.10;77.60;;;;;;5011922;28;20465;-70
2022/10/30 10:08:07;;;;;;;23.10;8.07;;;18.20;77.60;;;;;;5003656;28;20950;-69
2022/10/30 10:11:00;;;;;;;17.27;7.90;;;18.30;76.70;;;;;;5009906;28;20431;-69
2022/10/30 10:13:49;;;;;;;16.13;6.77;;;18.50;76.80;;;;;;5009448;28;20551;-70
2022/10/30 10:16:25;;;;;;;14.00;7.00;;;18.80;76.20;;;;;;5018841;28;20423;-69
2022/10/30 10:19:07;;;;;;;21.43;7.90;;;19.30;76.20;;;;;;5016661;28;20953;-71
2022/10/30 10:21:37;;;;;;;15.57;8.13;;;19.80;73.50;;;;;;5013476;28;20482;-71
2022/10/30 10:24:13;;;;;;;14.20;7.03;;;20.00;70.70;;;;;;5016572;28;20443;-71
2022/10/30 10:26:51;;;;;;;14.37;7.30;;;20.30;70.20;;;;;;5007094;28;20611;-71
2022/10/30 10:29:20;;;;;;;16.90;8.03;;;21.10;68.90;;;;;;5008067;28;20924;-71
2022/10/30 10:31:53;;;;;;;14.53;7.10;;;22.00;68.30;;;;;;5004641;28;20909;-72
2022/10/30 10:34:55;;;;;;;14.70;7.17;;;22.60;65.70;;;;;;5005778;28;20431;-70
2022/10/30 10:37:44;;;;;;;18.20;7.07;;;23.30;64.10;;;;;;5007792;28;20444;-71
2022/10/30 10:40:37;;;;;;;13.20;7.33;;;23.60;62.00;;;;;;5015955;28;20447;-70
2022/10/30 10:43:17;;;;;;;12.23;6.93;;;23.80;62.60;;;;;;5009455;28;20577;-71
2022/10/30 10:45:58;;;;;;;15.93;7.80;;;23.80;62.00;;;;;;5013848;28;20476;-70
2022/10/30 10:49:00;;;;;;;18.87;7.60;;;23.30;62.60;;;;;;5015660;28;20451;-72
2022/10/30 10:51:53;;;;;;;14.23;6.80;;;22.90;63.90;;;;;;5015201;28;20426;-70
2022/10/30 10:54:29;;;;;;;18.77;7.70;;;23.50;64.40;;;;;;5014384;28;20438;-72
2022/10/30 10:56:58;;;;;;;13.13;7.17;;;23.50;62.80;;;;;;5015884;28;20446;-69
2022/10/30 10:59:46;;;;;;;16.93;7.13;;;24.10;62.20;;;;;;5015717;28;20424;-70
2022/10/30 11:02:36;;;;;;;20.47;7.03;;;24.40;60.60;;;;;;5005612;28;20467;-70
2022/10/30 11:05:23;;;;;;;18.27;7.70;;;24.80;60.90;;;;;;5012258;28;20503;-69
2022/10/30 11:07:50;;;;;;;16.33;6.87;;;24.70;60.10;;;;;;5010655;28;20467;-70
2022/10/30 11:10:18;;;;;;;12.73;7.37;;;25.30;59.50;;;;;;5008512;28;20419;-69
2022/10/30 11:12:44;;;;;;;21.03;8.07;;;24.90;58.80;;;;;;5005606;28;20462;-70
2022/10/30 11:15:23;;;;;;;11.83;7.07;;;24.30;60.90;;;;;;5007024;28;20459;-70
2022/10/30 11:18:03;;;;;;;19.27;7.90;;;24.00;61.90;;;;;;5002124;28;20674;-70
2022/10/30 11:20:50;;;;;;;15.80;7.67;;;24.30;61.50;;;;;;5005898;28;20427;-71
2022/10/30 11:23:31;;;;;;;16.77;7.50;;;23.90;62.30;;;;;;5003114;28;20534;-70
2022/10/30 11:25:57;;;;;;;13.93;7.53;;;24.50;62.00;;;;;;5003392;28;20478;-70
2022/10/30 11:28:37;;;;;;;17.20;7.13;;;25.30;60.00;;;;;;5004989;28;21170;-70
2022/10/30 11:31:22;;;;;;;10.60;6.40;;;25.90;58.80;;;;;;5006725;28;20181;-71
2022/10/30 11:33:49;;;;;;;16.67;7.20;;;26.50;57.20;;;;;;5002045;28;20571;-70
2022/10/30 11:36:22;;;;;;;13.30;7.47;;;26.90;55.40;;;;;;5009454;28;20515;-70
2022/10/30 11:38:47;;;;;;;14.93;7.20;;;27.00;55.20;;;;;;5006953;28;20926;-70
2022/10/30 11:41:14;;;;;;;11.50;6.10;;;26.90;54.80;;;;;;5009781;28;20424;-70
2022/10/30 11:43:40;;;;;;;21.33;7.77;;;27.00;55.30;;;;;;5000004;28;20217;-71
2022/10/30 11:46:09;;;;;;;20.87;7.47;;;27.20;54.20;;;;;;5009603;28;20483;-69
2022/10/30 11:48:38;;;;;;;8.93;6.00;;;26.90;54.60;;;;;;5007681;28;20428;-71
2022/10/30 11:51:05;;;;;;;16.13;7.80;;;27.00;55.20;;;;;;5009128;28;20450;-71
2022/10/30 11:53:35;;;;;;;17.80;8.40;;;27.20;54.40;;;;;;5002786;28;20471;-69
2022/10/30 11:56:02;;;;;;;14.47;7.77;;;27.10;54.90;;;;;;5009429;28;20524;-71
2022/10/30 11:58:33;;;;;;;12.03;7.07;;;27.10;54.90;;;;;;5009087;28;20429;-70
2022/10/30 12:01:23;;;;;;;16.80;7.13;;;27.20;55.20;;;;;;5009445;28;20427;-70
2022/10/30 12:03:49;;;;;;;13.60;7.63;;;27.00;55.40;;;;;;5009447;28;20474;-70
2022/10/30 12:06:23;;;;;;;13.90;7.20;;;26.80;55.40;;;;;;5017707;28;20983;-70
2022/10/30 12:09:02;;;;;;;13.93;7.17;;;26.50;56.50;;;;;;5020233;28;20412;-70
2022/10/30 12:11:42;;;;;;;15.33;7.37;;;26.20;56.90;;;;;;5020463;28;20494;-70
2022/10/30 12:14:23;;;;;;;18.97;7.60;;;25.90;58.00;;;;;;5013692;28;20439;-71
2022/10/30 12:16:51;;;;;;;10.83;7.07;;;25.80;58.50;;;;;;5014512;28;20434;-69
2022/10/30 12:19:19;;;;;;;13.17;6.10;;;25.70;58.90;;;;;;5014188;28;20420;-70
2022/10/30 12:21:48;;;;;;;14.87;7.40;;;25.60;59.10;;;;;;5011312;28;20464;-70
2022/10/30 12:24:22;;;;;;;12.37;6.70;;;25.40;59.30;;;;;;5001935;28;20424;-70
2022/10/30 12:26:51;;;;;;;19.07;7.17;;;25.30;59.50;;;;;;5012700;28;20438;-70
2022/10/30 12:29:20;;;;;;;13.30;6.93;;;25.30;59.90;;;;;;5012194;28;20930;-70
2022/10/30 12:31:56;;;;;;;15.70;7.37;;;25.30;60.10;;;;;;5009868;28;20426;-70
2022/10/30 12:34:40;;;;;;;20.53;7.87;;;25.40;59.90;;;;;;5001767;28;20885;-69
2022/10/30 12:37:28;;;;;;;15.53;6.80;;;25.50;60.30;;;;;;5012049;28;20933;-71
2022/10/30 12:40:35;;;;;;;16.70;6.40;;;25.60;60.30;;;;;;5009917;28;20422;-70
2022/10/30 12:43:24;;;;;;;12.60;7.53;;;25.60;60.70;;;;;;5008095;28;20483;-71
2022/10/30 12:45:57;;;;;;;10.87;6.97;;;25.70;60.30;;;;;;5009852;28;20497;-70
2022/10/30 12:48:36;;;;;;;12.87;7.70;;;25.70;60.00;;;;;;5003161;28;20419;-70
2022/10/30 12:51:21;;;;;;;12.73;7.00;;;25.80;59.90;;;;;;5008278;28;20433;-69